Time;durP1;ratioP1;P1;durP2;ratioP2;P2;SDS_P1;SDS_P2;PMS_P1;PMS_P2;Temp;Humidity;BMP_temperature;BMP_pressure;BME280_temperature;BME280_humidity;BME280_pressure;Samples;Min_cycle;Max_cycle;Signal;HPM_P1;HPM_P2
2022/04/02 00:02:03;;;;;;;;;;;;;;;;;;4981665;28;812;-66
2022/04/02 00:04:28;;;;;;;;;;;;;;;;;;4972722;28;1434;-66
2022/04/02 00:06:54;;;;;;;;;;;;;;;;;;4980677;28;1208;-65
2022/04/02 00:09:19;;;;;;;;;;;;;;;;;;4981560;28;1482;-65
2022/04/02 00:11:45;;;;;;;;;;;;;;;;;;4981343;28;795;-65
2022/04/02 00:14:11;;;;;;;;;;;;;;;;;;4996504;28;1663;-65
2022/04/02 00:16:36;;;;;;;;;;;;;;;;;;4972126;28;1902;-66
2022/04/02 00:19:01;;;;;;;;;;;;;;;;;;4996457;28;862;-65
2022/04/02 00:21:26;;;;;;;;;;;;;;;;;;4981327;28;954;-66
2022/04/02 00:23:52;;;;;;;;;;;;;;;;;;4981219;28;859;-66
2022/04/02 00:26:20;;;;;;;;;;;;;;;;;;4981152;28;1200;-66
2022/04/02 00:28:48;;;;;;;;;;;;;;;;;;4979552;28;1362;-66
2022/04/02 00:31:13;;;;;;;;;;;;;;;;;;4979692;28;1221;-66
2022/04/02 00:33:39;;;;;;;;;;;;;;;;;;4984356;28;1568;-66
2022/04/02 00:36:05;;;;;;;;;;;;;;;;;;4973943;28;1981;-66
2022/04/02 00:38:30;;;;;;;;;;;;;;;;;;4980692;28;1154;-65
2022/04/02 00:40:56;;;;;;;;;;;;;;;;;;4984467;28;788;-65
2022/04/02 00:43:21;;;;;;;;;;;;;;;;;;4984536;28;990;-65
2022/04/02 00:45:46;;;;;;;;;;;;;;;;;;4984261;28;1196;-66
2022/04/02 00:48:12;;;;;;;;;;;;;;;;;;4984488;28;808;-66
2022/04/02 00:50:37;;;;;;;;;;;;;;;;;;4975454;28;1378;-66
2022/04/02 00:53:02;;;;;;;;;;;;;;;;;;4984262;28;1271;-66
2022/04/02 00:55:30;;;;;;;;;;;;;;;;;;4975222;28;1965;-66
2022/04/02 00:57:55;;;;;;;;;;;;;;;;;;4983959;28;1290;-65
2022/04/02 01:00:21;;;;;;;;;;;;;;;;;;4983567;28;1434;-66
2022/04/02 01:02:46;;;;;;;;;;;;;;;;;;4980572;28;1343;-66
2022/04/02 01:05:11;;;;;;;;;;;;;;;;;;4978742;28;1130;-66
2022/04/02 01:07:36;;;;;;;;;;;;;;;;;;4983902;28;1342;-66
2022/04/02 01:10:03;;;;;;;;;;;;;;;;;;4984236;28;1493;-66
2022/04/02 01:12:28;;;;;;;;;;;;;;;;;;4983832;28;943;-66
2022/04/02 01:14:54;;;;;;;;;;;;;;;;;;4974671;28;1409;-66
2022/04/02 01:17:20;;;;;;;;;;;;;;;;;;4975920;28;1961;-66
2022/04/02 01:19:46;;;;;;;;;;;;;;;;;;4983385;28;1216;-65
2022/04/02 01:22:11;;;;;;;;;;;;;;;;;;4983880;28;914;-66
2022/04/02 01:24:36;;;;;;;;;;;;;;;;;;4983299;28;1058;-66
2022/04/02 01:27:01;;;;;;;;;;;;;;;;;;4983089;28;1292;-66
2022/04/02 01:29:31;;;;;;;;;;;;;;;;;;4980649;28;1433;-66
2022/04/02 01:31:56;;;;;;;;;;;;;;;;;;4982544;28;1377;-66
2022/04/02 01:34:21;;;;;;;;;;;;;;;;;;4982798;28;1205;-66
2022/04/02 01:36:47;;;;;;;;;;;;;;;;;;4982348;28;1898;-66
2022/04/02 01:39:12;;;;;;;;;;;;;;;;;;4979492;28;1221;-67
2022/04/02 01:41:37;;;;;;;;;;;;;;;;;;4983025;28;1221;-66
2022/04/02 01:44:03;;;;;;;;;;;;;;;;;;4980987;28;1363;-67
2022/04/02 01:46:28;;;;;;;;;;;;;;;;;;4982648;28;1253;-67
2022/04/02 01:48:53;;;;;;;;;;;;;;;;;;4980083;28;1327;-67
2022/04/02 01:51:19;;;;;;;;;;;;;;;;;;4982208;28;1422;-67
2022/04/02 01:53:44;;;;;;;;;;;;;;;;;;4982306;28;1174;-67
2022/04/02 01:56:09;;;;;;;;;;;;;;;;;;4983069;28;1902;-66
2022/04/02 01:58:35;;;;;;;;;;;;;;;;;;4983271;28;926;-67
2022/04/02 02:01:00;;;;;;;;;;;;;;;;;;4983407;28;835;-66
2022/04/02 02:03:25;;;;;;;;;;;;;;;;;;4983133;28;1073;-66
2022/04/02 02:05:50;;;;;;;;;;;;;;;;;;4978904;28;1359;-67
2022/04/02 02:08:16;;;;;;;;;;;;;;;;;;4978370;28;1201;-64
2022/04/02 02:10:41;;;;;;;;;;;;;;;;;;4980224;28;1406;-65
2022/04/02 02:13:07;;;;;;;;;;;;;;;;;;4977461;28;1143;-65
2022/04/02 02:15:32;;;;;;;;;;;;;;;;;;4982371;28;1899;-66
2022/04/02 02:17:57;;;;;;;;;;;;;;;;;;4983006;28;1037;-65
2022/04/02 02:20:22;;;;;;;;;;;;;;;;;;4982807;28;930;-66
2022/04/02 02:22:49;;;;;;;;;;;;;;;;;;4983072;28;1497;-66
2022/04/02 02:25:15;;;;;;;;;;;;;;;;;;4982072;28;1367;-65
2022/04/02 02:27:45;;;;;;;;;;;;;;;;;;4974089;28;1644;-66
2022/04/02 02:30:11;;;;;;;;;;;;;;;;;;4983148;28;862;-65
2022/04/02 02:32:37;;;;;;;;;;;;;;;;;;4982403;28;1478;-66
2022/04/02 02:37:50;;;;;;;;;;;;;;;;;;4982536;28;1508;-66
2022/04/02 02:40:16;;;;;;;;;;;;;;;;;;4975481;28;1315;-65
2022/04/02 02:42:41;;;;;;;;;;;;;;;;;;4981327;28;1123;-65
2022/04/02 02:45:06;;;;;;;;;;;;;;;;;;4982485;28;866;-66
2022/04/02 02:47:31;;;;;;;;;;;;;;;;;;4982580;28;1149;-66
2022/04/02 02:49:57;;;;;;;;;;;;;;;;;;4981911;28;915;-66
2022/04/02 02:52:22;;;;;;;;;;;;;;;;;;4982309;28;1481;-67
2022/04/02 02:54:47;;;;;;;;;;;;;;;;;;4978743;28;1425;-66
2022/04/02 02:57:13;;;;;;;;;;;;;;;;;;4977327;28;1890;-65
2022/04/02 02:59:38;;;;;;;;;;;;;;;;;;4981024;28;1370;-65
2022/04/02 03:02:03;;;;;;;;;;;;;;;;;;4975397;28;1450;-65
2022/04/02 03:04:30;;;;;;;;;;;;;;;;;;4971195;28;1401;-65
2022/04/02 03:06:55;;;;;;;;;;;;;;;;;;4974868;28;1226;-65
2022/04/02 03:09:20;;;;;;;;;;;;;;;;;;4982081;28;1459;-65
2022/04/02 03:11:46;;;;;;;;;;;;;;;;;;4982236;28;895;-65
2022/04/02 03:14:11;;;;;;;;;;;;;;;;;;4975486;28;1322;-66
2022/04/02 03:16:36;;;;;;;;;;;;;;;;;;4979658;28;1944;-66
2022/04/02 03:19:02;;;;;;;;;;;;;;;;;;4979374;28;1422;-66
2022/04/02 03:21:28;;;;;;;;;;;;;;;;;;4974075;28;1137;-66
2022/04/02 03:23:53;;;;;;;;;;;;;;;;;;4982121;28;1461;-66
2022/04/02 03:26:19;;;;;;;;;;;;;;;;;;4981677;28;1485;-66
2022/04/02 03:28:46;;;;;;;;;;;;;;;;;;4981671;28;1528;-66
2022/04/02 03:31:11;;;;;;;;;;;;;;;;;;4982050;28;862;-66
2022/04/02 03:33:36;;;;;;;;;;;;;;;;;;4973278;28;1378;-66
2022/04/02 03:36:01;;;;;;;;;;;;;;;;;;4973395;28;1887;-66
2022/04/02 03:38:27;;;;;;;;;;;;;;;;;;4981760;28;1161;-66
2022/04/02 03:40:53;;;;;;;;;;;;;;;;;;4980085;28;1366;-66
2022/04/02 03:43:18;;;;;;;;;;;;;;;;;;4973942;28;1106;-66
2022/04/02 03:45:43;;;;;;;;;;;;;;;;;;4981182;28;1311;-66
2022/04/02 03:48:08;;;;;;;;;;;;;;;;;;4981927;28;1053;-66
2022/04/02 03:50:34;;;;;;;;;;;;;;;;;;4981438;28;1497;-66
2022/04/02 03:52:59;;;;;;;;;;;;;;;;;;4981922;28;820;-66
2022/04/02 03:55:25;;;;;;;;;;;;;;;;;;4978829;28;1910;-66
2022/04/02 03:57:50;;;;;;;;;;;;;;;;;;4981708;28;1157;-66
2022/04/02 04:00:16;;;;;;;;;;;;;;;;;;4980939;28;1410;-66
2022/04/02 04:02:42;;;;;;;;;;;;;;;;;;4974006;28;1306;-65
2022/04/02 04:05:08;;;;;;;;;;;;;;;;;;4989260;28;1288;-66
2022/04/02 04:07:34;;;;;;;;;;;;;;;;;;4983125;28;1434;-66
2022/04/02 04:09:59;;;;;;;;;;;;;;;;;;4983886;28;1394;-65
2022/04/02 04:12:24;;;;;;;;;;;;;;;;;;4976878;28;1203;-65
2022/04/02 04:14:50;;;;;;;;;;;;;;;;;;4984459;28;1232;-65
2022/04/02 04:17:15;;;;;;;;;;;;;;;;;;4984595;28;1906;-64
2022/04/02 04:19:40;;;;;;;;;;;;;;;;;;4976003;28;1487;-65
2022/04/02 04:22:06;;;;;;;;;;;;;;;;;;4984922;28;1066;-66
2022/04/02 04:24:32;;;;;;;;;;;;;;;;;;4981931;28;1533;-66
2022/04/02 04:26:57;;;;;;;;;;;;;;;;;;4976257;28;1170;-65
2022/04/02 04:29:23;;;;;;;;;;;;;;;;;;4984592;28;843;-65
2022/04/02 04:31:48;;;;;;;;;;;;;;;;;;4984595;28;1093;-66
2022/04/02 04:34:13;;;;;;;;;;;;;;;;;;4977684;28;1402;-65
2022/04/02 04:36:38;;;;;;;;;;;;;;;;;;4983207;28;1963;-65
2022/04/02 04:39:04;;;;;;;;;;;;;;;;;;4983827;28;1513;-65
2022/04/02 04:41:29;;;;;;;;;;;;;;;;;;4976341;28;1118;-65
2022/04/02 04:43:55;;;;;;;;;;;;;;;;;;4983810;28;1302;-65
2022/04/02 04:46:20;;;;;;;;;;;;;;;;;;4975907;28;1269;-65
2022/04/02 04:48:45;;;;;;;;;;;;;;;;;;4984315;28;986;-66
2022/04/02 04:51:12;;;;;;;;;;;;;;;;;;4999446;28;883;-65
2022/04/02 04:53:37;;;;;;;;;;;;;;;;;;4983722;28;1302;-65
2022/04/02 04:56:03;;;;;;;;;;;;;;;;;;4983454;28;1963;-66
2022/04/02 04:58:28;;;;;;;;;;;;;;;;;;4984200;28;1176;-66
2022/04/02 05:00:54;;;;;;;;;;;;;;;;;;4975593;28;1370;-65
2022/04/02 05:03:20;;;;;;;;;;;;;;;;;;4983880;28;1153;-65
2022/04/02 05:05:46;;;;;;;;;;;;;;;;;;4983936;28;1153;-65
2022/04/02 05:08:11;;;;;;;;;;;;;;;;;;4977234;28;1386;-66
2022/04/02 05:10:38;;;;;;;;;;;;;;;;;;4982168;28;1064;-66
2022/04/02 05:13:04;;;;;;;;;;;;;;;;;;4982552;28;1528;-65
2022/04/02 05:15:29;;;;;;;;;;;;;;;;;;4972715;28;1899;-65
2022/04/02 05:17:54;;;;;;;;;;;;;;;;;;4983972;28;1122;-65
2022/04/02 05:20:19;;;;;;;;;;;;;;;;;;4983841;28;914;-65
2022/04/02 05:22:44;;;;;;;;;;;;;;;;;;4982811;28;871;-65
2022/04/02 05:25:10;;;;;;;;;;;;;;;;;;4983822;28;879;-66
2022/04/02 05:27:36;;;;;;;;;;;;;;;;;;4982733;28;1421;-65
2022/04/02 05:30:01;;;;;;;;;;;;;;;;;;4983499;28;1544;-65
2022/04/02 05:32:28;;;;;;;;;;;;;;;;;;4983820;28;1212;-66
2022/04/02 05:34:53;;;;;;;;;;;;;;;;;;4983746;28;839;-66
2022/04/02 05:37:18;;;;;;;;;;;;;;;;;;4975349;28;1969;-66
2022/04/02 05:39:43;;;;;;;;;;;;;;;;;;4982600;28;1150;-66
2022/04/02 05:42:11;;;;;;;;;;;;;;;;;;4982935;28;1366;-65
2022/04/02 05:44:36;;;;;;;;;;;;;;;;;;4974650;28;1350;-65
2022/04/02 05:47:01;;;;;;;;;;;;;;;;;;4982944;28;1417;-65
2022/04/02 05:49:27;;;;;;;;;;;;;;;;;;4998420;28;907;-65
2022/04/02 05:51:52;;;;;;;;;;;;;;;;;;4983429;28;820;-65
2022/04/02 05:54:17;;;;;;;;;;;;;;;;;;4983253;28;1481;-65
2022/04/02 05:56:43;;;;;;;;;;;;;;;;;;4982199;28;1898;-65
2022/04/02 05:59:08;;;;;;;;;;;;;;;;;;4983178;28;1561;-65
2022/04/02 06:01:36;;;;;;;;;;;;;;;;;;4983253;28;1079;-65
2022/04/02 06:04:03;;;;;;;;;;;;;;;;;;4983051;28;1505;-65
2022/04/02 06:06:28;;;;;;;;;;;;;;;;;;4982800;28;1244;-64
2022/04/02 06:08:53;;;;;;;;;;;;;;;;;;4983285;28;808;-65
2022/04/02 06:11:19;;;;;;;;;;;;;;;;;;4982832;28;1147;-66
2022/04/02 06:13:44;;;;;;;;;;;;;;;;;;4973679;28;1871;-65
2022/04/02 06:16:09;;;;;;;;;;;;;;;;;;4982727;28;1968;-65
2022/04/02 06:18:35;;;;;;;;;;;;;;;;;;4983209;28;899;-65
2022/04/02 06:21:03;;;;;;;;;;;;;;;;;;4983023;28;1473;-65
2022/04/02 06:23:28;;;;;;;;;;;;;;;;;;4983179;28;914;-65
2022/04/02 06:25:54;;;;;;;;;;;;;;;;;;4981775;28;1205;-65
2022/04/02 06:28:19;;;;;;;;;;;;;;;;;;4973959;28;1366;-65
2022/04/02 06:30:44;;;;;;;;;;;;;;;;;;4982891;28;1172;-66
2022/04/02 06:33:09;;;;;;;;;;;;;;;;;;4982847;28;918;-66
2022/04/02 06:35:35;;;;;;;;;;;;;;;;;;4982310;28;1890;-66
2022/04/02 06:38:00;;;;;;;;;;;;;;;;;;4982725;28;899;-66
2022/04/02 06:40:26;;;;;;;;;;;;;;;;;;4982632;28;812;-66
2022/04/02 06:42:51;;;;;;;;;;;;;;;;;;4976227;28;1417;-66
2022/04/02 06:45:16;;;;;;;;;;;;;;;;;;4977737;28;1244;-65
2022/04/02 06:47:42;;;;;;;;;;;;;;;;;;4982501;28;1239;-65
2022/04/02 06:50:08;;;;;;;;;;;;;;;;;;4982485;28;945;-66
2022/04/02 06:52:34;;;;;;;;;;;;;;;;;;4982727;28;823;-66
2022/04/02 06:54:59;;;;;;;;;;;;;;;;;;4982552;28;1064;-65
2022/04/02 06:57:24;;;;;;;;;;;;;;;;;;4980547;28;1989;-65
2022/04/02 06:59:50;;;;;;;;;;;;;;;;;;4981975;28;1299;-66
2022/04/02 07:02:18;;;;;;;;;;;;;;;;;;4981985;28;1162;-65
2022/04/02 07:04:44;;;;;;;;;;;;;;;;;;4981952;28;1102;-65
2022/04/02 07:07:09;;;;;;;;;;;;;;;;;;4980867;28;1398;-66
2022/04/02 07:09:34;;;;;;;;;;;;;;;;;;4981372;28;1477;-65
2022/04/02 07:12:00;;;;;;;;;;;;;;;;;;4980170;28;1493;-66
2022/04/02 07:14:25;;;;;;;;;;;;;;;;;;4981206;28;1505;-65
2022/04/02 07:16:50;;;;;;;;;;;;;;;;;;4981410;28;1899;-66
2022/04/02 07:19:19;;;;;;;;;;;;;;;;;;4981664;28;1237;-66
2022/04/02 07:21:45;;;;;;;;;;;;;;;;;;4977722;28;1343;-65
2022/04/02 07:24:11;;;;;;;;;;;;;;;;;;4981663;28;1297;-65
2022/04/02 07:26:37;;;;;;;;;;;;;;;;;;4979778;28;1327;-66
2022/04/02 07:29:03;;;;;;;;;;;;;;;;;;4981825;28;1244;-66
2022/04/02 07:31:28;;;;;;;;;;;;;;;;;;4978852;28;1659;-67
2022/04/02 07:33:53;;;;;;;;;;;;;;;;;;4982203;28;1222;-66
2022/04/02 07:36:20;;;;;;;;;;;;;;;;;;4980307;28;1964;-66
2022/04/02 07:38:53;;;;;;;;;;;;;;;;;;4981326;28;1486;-67
2022/04/02 07:41:25;;;;;;;;;;;;;;;;;;4979888;28;1390;-67
2022/04/02 07:43:52;;;;;;;;;;;;;;;;;;4981054;28;1445;-67
2022/04/02 07:46:18;;;;;;;;;;;;;;;;;;4980266;28;1344;-68
2022/04/02 07:48:45;;;;;;;;;;;;;;;;;;4977725;28;1449;-67
2022/04/02 07:51:11;;;;;;;;;;;;;;;;;;4981026;28;1295;-67
2022/04/02 07:53:44;;;;;;;;;;;;;;;;;;4980617;28;1222;-67
2022/04/02 07:56:13;;;;;;;;;;;;;;;;;;4979690;28;1955;-67
2022/04/02 07:58:40;;;;;;;;;;;;;;;;;;4981245;28;1261;-67
2022/04/02 08:01:06;;;;;;;;;;;;;;;;;;4979587;28;1407;-67
2022/04/02 08:03:31;;;;;;;;;;;;;;;;;;4980804;28;1312;-67
2022/04/02 08:05:57;;;;;;;;;;;;;;;;;;4979482;28;1342;-67
2022/04/02 08:08:25;;;;;;;;;;;;;;;;;;4980672;28;1229;-67
2022/04/02 08:10:54;;;;;;;;;;;;;;;;;;4980921;28;1276;-68
2022/04/02 08:13:21;;;;;;;;;;;;;;;;;;4980840;28;1272;-75
2022/04/02 08:15:46;;;;;;;;;;;;;;;;;;4979398;28;1899;-74
2022/04/02 08:18:15;;;;;;;;;;;;;;;;;;4974454;28;1350;-73
2022/04/02 08:20:42;;;;;;;;;;;;;;;;;;4975755;28;1327;-72
2022/04/02 08:23:07;;;;;;;;;;;;;;;;;;4975194;28;1117;-72
2022/04/02 08:25:35;;;;;;;;;;;;;;;;;;4980407;28;1239;-71
2022/04/02 08:28:00;;;;;;;;;;;;;;;;;;4980914;28;1433;-71
2022/04/02 08:30:32;;;;;;;;;;;;;;;;;;4980225;28;1421;-71
2022/04/02 08:33:16;;;;;;;;;;;;;;;;;;4973749;28;1170;-71
2022/04/02 08:35:50;;;;;;;;;;;;;;;;;;4977984;28;1891;-71
2022/04/02 08:38:17;;;;;;;;;;;;;;;;;;4975710;28;1482;-71
2022/04/02 08:40:48;;;;;;;;;;;;;;;;;;4973161;28;1137;-71
2022/04/02 08:43:30;;;;;;;;;;;;;;;;;;4981049;28;858;-71
2022/04/02 08:46:13;;;;;;;;;;;;;;;;;;4976215;28;1358;-71
2022/04/02 08:48:47;;;;;;;;;;;;;;;;;;4980374;28;1178;-71
2022/04/02 08:51:12;;;;;;;;;;;;;;;;;;4984494;28;918;-71
2022/04/02 08:53:37;;;;;;;;;;;;;;;;;;4983444;28;1366;-71
2022/04/02 08:56:05;;;;;;;;;;;;;;;;;;4983713;28;1906;-71
2022/04/02 08:59:04;;;;;;;;;;;;;;;;;;4984351;28;1021;-71
2022/04/02 09:01:40;;;;;;;;;;;;;;;;;;4959779;28;1423;-72
2022/04/02 09:04:09;;;;;;;;;;;;;;;;;;4984014;28;1157;-71
2022/04/02 09:06:34;;;;;;;;;;;;;;;;;;4982549;28;1507;-71
2022/04/02 09:09:06;;;;;;;;;;;;;;;;;;4980184;28;1355;-71
2022/04/02 09:11:31;;;;;;;;;;;;;;;;;;4980435;28;1157;-71
2022/04/02 09:13:59;;;;;;;;;;;;;;;;;;4979017;28;1311;-71
2022/04/02 09:16:31;;;;;;;;;;;;;;;;;;4970878;28;1910;-71
2022/04/02 09:18:56;;;;;;;;;;;;;;;;;;4975305;28;1343;-71
2022/04/02 09:21:40;;;;;;;;;;;;;;;;;;4975139;28;1386;-71
2022/04/02 09:24:10;;;;;;;;;;;;;;;;;;4973917;28;1359;-71
2022/04/02 09:26:51;;;;;;;;;;;;;;;;;;4981356;28;1401;-71
2022/04/02 09:29:17;;;;;;;;;;;;;;;;;;4982737;28;1486;-72
2022/04/02 09:31:45;;;;;;;;;;;;;;;;;;4983552;28;772;-72
2022/04/02 09:34:29;;;;;;;;;;;;;;;;;;4983812;28;1109;-72
2022/04/02 09:37:08;;;;;;;;;;;;;;;;;;4982852;28;1895;-72
2022/04/02 09:39:36;;;;;;;;;;;;;;;;;;4974823;28;1481;-72
2022/04/02 09:42:31;;;;;;;;;;;;;;;;;;4983619;28;851;-73
2022/04/02 09:44:56;;;;;;;;;;;;;;;;;;4978244;28;1520;-72
2022/04/02 09:47:31;;;;;;;;;;;;;;;;;;4984654;28;1537;-72
2022/04/02 09:50:06;;;;;;;;;;;;;;;;;;4989541;28;1410;-73
2022/04/02 09:52:31;;;;;;;;;;;;;;;;;;4982063;28;1370;-72
2022/04/02 09:55:04;;;;;;;;;;;;;;;;;;4979886;28;976;-71
2022/04/02 09:57:36;;;;;;;;;;;;;;;;;;4986490;28;1871;-72
2022/04/02 10:00:05;;;;;;;;;;;;;;;;;;4981976;28;1469;-72
2022/04/02 10:02:40;;;;;;;;;;;;;;;;;;4973582;28;1402;-72
2022/04/02 10:05:12;;;;;;;;;;;;;;;;;;4976574;28;1168;-72
2022/04/02 10:07:56;;;;;;;;;;;;;;;;;;4982686;28;1366;-72
2022/04/02 10:10:26;;;;;;;;;;;;;;;;;;4979342;28;1135;-72
2022/04/02 10:12:52;;;;;;;;;;;;;;;;;;4983259;28;851;-72
2022/04/02 10:15:19;;;;;;;;;;;;;;;;;;4981852;28;1517;-72
2022/04/02 10:17:50;;;;;;;;;;;;;;;;;;4983135;28;1952;-72
2022/04/02 10:20:18;;;;;;;;;;;;;;;;;;4982984;28;823;-74
2022/04/02 10:22:45;;;;;;;;;;;;;;;;;;4983017;28;788;-71
2022/04/02 10:25:11;;;;;;;;;;;;;;;;;;4973886;28;1418;-71
2022/04/02 10:27:38;;;;;;;;;;;;;;;;;;4982758;28;1197;-72
2022/04/02 10:30:04;;;;;;;;;;;;;;;;;;4982826;28;1005;-72
2022/04/02 10:32:33;;;;;;;;;;;;;;;;;;4982602;28;1501;-71
2022/04/02 10:35:03;;;;;;;;;;;;;;;;;;4982584;28;894;-71
2022/04/02 10:37:42;;;;;;;;;;;;;;;;;;4973825;28;1894;-71
2022/04/02 10:40:11;;;;;;;;;;;;;;;;;;4986970;28;1460;-71
2022/04/02 10:42:39;;;;;;;;;;;;;;;;;;4982749;28;796;-71
2022/04/02 10:45:09;;;;;;;;;;;;;;;;;;4982359;28;1103;-72
2022/04/02 10:47:38;;;;;;;;;;;;;;;;;;4982643;28;1161;-72
2022/04/02 10:50:05;;;;;;;;;;;;;;;;;;4982167;28;1536;-72
2022/04/02 10:52:31;;;;;;;;;;;;;;;;;;4974031;28;1412;-72
2022/04/02 10:54:56;;;;;;;;;;;;;;;;;;4981964;28;1516;-72
2022/04/02 10:57:21;;;;;;;;;;;;;;;;;;4982392;28;1894;-72
2022/04/02 10:59:47;;;;;;;;;;;;;;;;;;4995757;28;1398;-72
2022/04/02 11:02:22;;;;;;;;;;;;;;;;;;4974428;28;999;-72
2022/04/02 11:05:04;;;;;;;;;;;;;;;;;;4982237;28;1157;-72
2022/04/02 11:07:30;;;;;;;;;;;;;;;;;;4968080;28;1426;-72
2022/04/02 11:09:59;;;;;;;;;;;;;;;;;;4982389;28;1208;-72
2022/04/02 11:12:29;;;;;;;;;;;;;;;;;;4981666;28;840;-74
2022/04/02 11:14:56;;;;;;;;;;;;;;;;;;4980755;28;1362;-74
2022/04/02 11:17:32;;;;;;;;;;;;;;;;;;4981341;28;1910;-72
2022/04/02 11:20:15;;;;;;;;;;;;;;;;;;4974961;28;1200;-72
2022/04/02 11:22:59;;;;;;;;;;;;;;;;;;4982148;28;815;-73
2022/04/02 11:25:34;;;;;;;;;;;;;;;;;;4981960;28;1256;-71
2022/04/02 11:28:13;;;;;;;;;;;;;;;;;;4981408;28;1382;-72
2022/04/02 11:30:40;;;;;;;;;;;;;;;;;;4974055;28;1137;-71
2022/04/02 11:33:06;;;;;;;;;;;;;;;;;;4975908;28;1381;-71
2022/04/02 11:35:36;;;;;;;;;;;;;;;;;;4978416;28;1972;-71
2022/04/02 11:38:09;;;;;;;;;;;;;;;;;;4981844;28;1485;-71
2022/04/02 11:40:38;;;;;;;;;;;;;;;;;;4945304;28;883;-71
2022/04/02 11:43:03;;;;;;;;;;;;;;;;;;4965722;28;1366;-71
2022/04/02 11:45:29;;;;;;;;;;;;;;;;;;4981469;28;1268;-71
2022/04/02 11:47:58;;;;;;;;;;;;;;;;;;4981935;28;843;-72
2022/04/02 11:50:25;;;;;;;;;;;;;;;;;;4980822;28;1481;-71
2022/04/02 11:52:51;;;;;;;;;;;;;;;;;;4981815;28;1132;-72
2022/04/02 11:55:17;;;;;;;;;;;;;;;;;;4981279;28;1197;-72
2022/04/02 11:57:58;;;;;;;;;;;;;;;;;;4981828;28;1957;-72
2022/04/02 12:00:26;;;;;;;;;;;;;;;;;;4973044;28;1393;-72
2022/04/02 12:02:51;;;;;;;;;;;;;;;;;;4973922;28;1215;-71
2022/04/02 12:05:16;;;;;;;;;;;;;;;;;;4980357;28;1458;-72
2022/04/02 12:07:43;;;;;;;;;;;;;;;;;;4973399;28;1224;-72
2022/04/02 12:10:15;;;;;;;;;;;;;;;;;;4981830;28;909;-72
2022/04/02 12:12:44;;;;;;;;;;;;;;;;;;4981547;28;863;-71
2022/04/02 12:15:10;;;;;;;;;;;;;;;;;;4965972;28;1630;-72
2022/04/02 12:17:37;;;;;;;;;;;;;;;;;;4981231;28;1957;-72
2022/04/02 12:20:02;;;;;;;;;;;;;;;;;;4979578;28;1398;-72
2022/04/02 12:22:30;;;;;;;;;;;;;;;;;;4973333;28;1126;-72
2022/04/02 12:24:57;;;;;;;;;;;;;;;;;;4983512;28;905;-72
2022/04/02 12:27:23;;;;;;;;;;;;;;;;;;4984745;28;1177;-72
2022/04/02 12:29:50;;;;;;;;;;;;;;;;;;4984691;28;1505;-72
2022/04/02 12:32:26;;;;;;;;;;;;;;;;;;4984676;28;1580;-72
2022/04/02 12:34:54;;;;;;;;;;;;;;;;;;4977681;28;1466;-72
2022/04/02 12:37:19;;;;;;;;;;;;;;;;;;4980236;28;1974;-72
2022/04/02 12:39:45;;;;;;;;;;;;;;;;;;4984529;28;1056;-72
2022/04/02 12:42:10;;;;;;;;;;;;;;;;;;4984464;28;974;-72
2022/04/02 12:44:35;;;;;;;;;;;;;;;;;;4975937;28;1339;-72
2022/04/02 12:47:10;;;;;;;;;;;;;;;;;;4983930;28;1271;-72
2022/04/02 12:49:37;;;;;;;;;;;;;;;;;;4983951;28;1310;-72
2022/04/02 12:52:20;;;;;;;;;;;;;;;;;;4976209;28;1145;-72
2022/04/02 12:54:50;;;;;;;;;;;;;;;;;;4984276;28;1200;-72
2022/04/02 12:57:16;;;;;;;;;;;;;;;;;;4983343;28;1895;-72
2022/04/02 12:59:43;;;;;;;;;;;;;;;;;;4972894;28;1355;-71
2022/04/02 13:02:10;;;;;;;;;;;;;;;;;;4984001;28;1113;-71
2022/04/02 13:04:36;;;;;;;;;;;;;;;;;;4984029;28;1002;-71
2022/04/02 13:07:10;;;;;;;;;;;;;;;;;;4984795;28;1501;-71
2022/04/02 13:09:37;;;;;;;;;;;;;;;;;;4976043;28;943;-71
2022/04/02 13:12:03;;;;;;;;;;;;;;;;;;4984176;28;874;-71
2022/04/02 13:14:28;;;;;;;;;;;;;;;;;;4975179;28;1339;-71
2022/04/02 13:17:10;;;;;;;;;;;;;;;;;;4983566;28;1902;-71
2022/04/02 13:22:44;;;;;;;;;;;;;;;;;;4974880;28;1342;-71
2022/04/02 13:25:10;;;;;;;;;;;;;;;;;;4976888;28;1358;-70
2022/04/02 13:27:41;;;;;;;;;;;;;;;;;;4982275;28;1351;-71
2022/04/02 13:30:17;;;;;;;;;;;;;;;;;;4984001;28;772;-71
2022/04/02 13:33:01;;;;;;;;;;;;;;;;;;4980133;28;1343;-71
2022/04/02 13:35:33;;;;;;;;;;;;;;;;;;4979818;28;1458;-71
2022/04/02 13:38:11;;;;;;;;;;;;;;;;;;4983793;28;946;-71
2022/04/02 13:40:37;;;;;;;;;;;;;;;;;;4983693;28;1418;-71
2022/04/02 13:43:07;;;;;;;;;;;;;;;;;;4983300;28;1529;-71
2022/04/02 13:45:42;;;;;;;;;;;;;;;;;;4983171;28;1280;-71
2022/04/02 13:48:08;;;;;;;;;;;;;;;;;;4973661;28;1508;-71
2022/04/02 13:50:46;;;;;;;;;;;;;;;;;;4974644;28;1515;-71
2022/04/02 13:53:14;;;;;;;;;;;;;;;;;;4983213;28;1378;-71
2022/04/02 13:55:40;;;;;;;;;;;;;;;;;;4982963;28;1948;-71
2022/04/02 13:58:07;;;;;;;;;;;;;;;;;;4976732;28;1386;-72
2022/04/02 14:00:41;;;;;;;;;;;;;;;;;;4980911;28;1186;-69
2022/04/02 14:03:07;;;;;;;;;;;;;;;;;;4983267;28;1513;-70
2022/04/02 14:05:37;;;;;;;;;;;;;;;;;;4982290;28;1429;-74
2022/04/02 14:08:05;;;;;;;;;;;;;;;;;;4974605;28;1322;-71
2022/04/02 14:10:35;;;;;;;;;;;;;;;;;;4983338;28;1126;-71
2022/04/02 14:13:07;;;;;;;;;;;;;;;;;;4983134;28;1453;-69
2022/04/02 14:15:34;;;;;;;;;;;;;;;;;;4983110;28;1253;-71
2022/04/02 14:18:02;;;;;;;;;;;;;;;;;;4983073;28;1974;-71
2022/04/02 14:20:28;;;;;;;;;;;;;;;;;;4982169;28;1409;-69
2022/04/02 14:23:11;;;;;;;;;;;;;;;;;;4975346;28;1163;-69
2022/04/02 14:25:55;;;;;;;;;;;;;;;;;;4982674;28;1197;-69
2022/04/02 14:28:35;;;;;;;;;;;;;;;;;;4981194;28;1435;-68
2022/04/02 14:31:16;;;;;;;;;;;;;;;;;;4976065;28;1136;-69
2022/04/02 14:33:55;;;;;;;;;;;;;;;;;;4981203;28;1099;-68
2022/04/02 14:36:32;;;;;;;;;;;;;;;;;;4978653;28;1961;-70
2022/04/02 14:39:12;;;;;;;;;;;;;;;;;;4982138;28;1249;-67
2022/04/02 14:41:51;;;;;;;;;;;;;;;;;;4980381;28;1429;-68
2022/04/02 14:44:35;;;;;;;;;;;;;;;;;;4982255;28;1264;-67
2022/04/02 14:47:13;;;;;;;;;;;;;;;;;;4978951;28;1307;-68
2022/04/02 14:49:56;;;;;;;;;;;;;;;;;;4981044;28;1217;-67
2022/04/02 14:52:45;;;;;;;;;;;;;;;;;;4980703;28;1465;-73
2022/04/02 14:55:19;;;;;;;;;;;;;;;;;;4981965;28;1134;-70
2022/04/02 14:57:50;;;;;;;;;;;;;;;;;;4981128;28;1906;-71
2022/04/02 15:00:18;;;;;;;;;;;;;;;;;;4980278;28;1221;-70
2022/04/02 15:03:01;;;;;;;;;;;;;;;;;;4981670;28;1209;-71
2022/04/02 15:05:35;;;;;;;;;;;;;;;;;;4981594;28;1338;-70
2022/04/02 15:08:19;;;;;;;;;;;;;;;;;;4981008;28;1354;-71
2022/04/02 15:10:46;;;;;;;;;;;;;;;;;;4981355;28;1237;-69
2022/04/02 15:13:18;;;;;;;;;;;;;;;;;;4981277;28;1406;-68
2022/04/02 15:15:44;;;;;;;;;;;;;;;;;;4978581;28;1953;-71
2022/04/02 15:18:10;;;;;;;;;;;;;;;;;;4981893;28;1300;-69
2022/04/02 15:20:36;;;;;;;;;;;;;;;;;;4981379;28;1390;-71
2022/04/02 15:23:04;;;;;;;;;;;;;;;;;;4981225;28;1413;-69
2022/04/02 15:25:33;;;;;;;;;;;;;;;;;;4978057;28;1390;-70
2022/04/02 15:28:00;;;;;;;;;;;;;;;;;;4981575;28;1192;-67
2022/04/02 15:30:26;;;;;;;;;;;;;;;;;;4981427;28;1347;-67
2022/04/02 15:33:04;;;;;;;;;;;;;;;;;;4981688;28;1237;-69
2022/04/02 15:35:29;;;;;;;;;;;;;;;;;;4978972;28;1327;-69
2022/04/02 15:37:54;;;;;;;;;;;;;;;;;;4981395;28;1895;-72
2022/04/02 15:40:24;;;;;;;;;;;;;;;;;;4980781;28;1350;-69
2022/04/02 15:42:50;;;;;;;;;;;;;;;;;;4976286;28;1401;-68
2022/04/02 15:45:22;;;;;;;;;;;;;;;;;;4976609;28;1276;-70
2022/04/02 15:47:49;;;;;;;;;;;;;;;;;;4981609;28;1489;-69
2022/04/02 15:50:14;;;;;;;;;;;;;;;;;;4981993;28;913;-68
2022/04/02 15:52:41;;;;;;;;;;;;;;;;;;4981610;28;1525;-70
2022/04/02 15:55:18;;;;;;;;;;;;;;;;;;4972766;28;1370;-71
2022/04/02 15:58:03;;;;;;;;;;;;;;;;;;4980422;28;1942;-71
2022/04/02 16:00:28;;;;;;;;;;;;;;;;;;4984485;28;1244;-71
2022/04/02 16:02:54;;;;;;;;;;;;;;;;;;4984501;28;1217;-68
2022/04/02 16:05:21;;;;;;;;;;;;;;;;;;4984134;28;1297;-69
2022/04/02 16:08:04;;;;;;;;;;;;;;;;;;4984468;28;1177;-68
2022/04/02 16:10:30;;;;;;;;;;;;;;;;;;4981885;28;1305;-68
2022/04/02 16:12:56;;;;;;;;;;;;;;;;;;4984851;28;1233;-69
2022/04/02 16:15:25;;;;;;;;;;;;;;;;;;4983918;28;1331;-69
2022/04/02 16:18:09;;;;;;;;;;;;;;;;;;4984291;28;1898;-68
2022/04/02 16:20:34;;;;;;;;;;;;;;;;;;4984271;28;1221;-68
2022/04/02 16:23:02;;;;;;;;;;;;;;;;;;4984715;28;1288;-68
2022/04/02 16:25:27;;;;;;;;;;;;;;;;;;4983838;28;1466;-69
2022/04/02 16:27:53;;;;;;;;;;;;;;;;;;4984616;28;1101;-68
2022/04/02 16:30:18;;;;;;;;;;;;;;;;;;4984587;28;1041;-68
2022/04/02 16:32:44;;;;;;;;;;;;;;;;;;4984581;28;1446;-68
2022/04/02 16:35:10;;;;;;;;;;;;;;;;;;4983151;28;1298;-68
2022/04/02 16:37:36;;;;;;;;;;;;;;;;;;4974858;28;1969;-68
2022/04/02 16:40:01;;;;;;;;;;;;;;;;;;4984316;28;1472;-68
2022/04/02 16:42:27;;;;;;;;;;;;;;;;;;4983087;28;1509;-68
2022/04/02 16:44:57;;;;;;;;;;;;;;;;;;4984076;28;835;-68
2022/04/02 16:47:27;;;;;;;;;;;;;;;;;;4983775;28;1493;-69
2022/04/02 16:49:53;;;;;;;;;;;;;;;;;;4984622;28;907;-68
2022/04/02 16:52:20;;;;;;;;;;;;;;;;;;4984298;28;1327;-69
2022/04/02 16:54:46;;;;;;;;;;;;;;;;;;4964925;28;832;-69
2022/04/02 16:57:22;;;;;;;;;;;;;;;;;;4964325;28;1890;-68
2022/04/02 16:59:47;;;;;;;;;;;;;;;;;;4964897;28;846;-69
2022/04/02 17:02:27;;;;;;;;;;;;;;;;;;4977700;28;1490;-69
2022/04/02 17:04:59;;;;;;;;;;;;;;;;;;4984325;28;1014;-69
2022/04/02 17:07:25;;;;;;;;;;;;;;;;;;4984060;28;1187;-69
2022/04/02 17:09:50;;;;;;;;;;;;;;;;;;4983461;28;883;-69
2022/04/02 17:12:15;;;;;;;;;;;;;;;;;;4983966;28;1224;-69
2022/04/02 17:14:41;;;;;;;;;;;;;;;;;;4983370;28;1320;-69
2022/04/02 17:17:06;;;;;;;;;;;;;;;;;;4983002;28;1899;-69
2022/04/02 17:19:31;;;;;;;;;;;;;;;;;;4982487;28;1470;-68